Time;durP1;ratioP1;P1;durP2;ratioP2;P2;SDS_P1;SDS_P2;PMS_P1;PMS_P2;Temp;Humidity;BMP_temperature;BMP_pressure;BME280_temperature;BME280_humidity;BME280_pressure;Samples;Min_cycle;Max_cycle;Signal;HPM_P1;HPM_P2
2023/04/04 00:00:41;;;;;;;2.38;2.15;;;-0.40;99.90;;;;;;5020114;28;20060;-37
2023/04/04 00:03:09;;;;;;;9.10;2.90;;;-0.40;99.90;;;;;;5022371;28;20060;-36
2023/04/04 00:05:36;;;;;;;6.10;2.33;;;-0.40;99.90;;;;;;5021194;28;20049;-38
2023/04/04 00:08:04;;;;;;;3.25;2.95;;;-0.50;99.90;;;;;;5017081;28;20046;-37
2023/04/04 00:10:32;;;;;;;3.08;2.85;;;-0.50;99.90;;;;;;5022546;28;20056;-37
2023/04/04 00:13:00;;;;;;;6.03;2.97;;;-0.50;99.90;;;;;;5022366;28;20068;-36
2023/04/04 00:15:27;;;;;;;2.22;2.13;;;-0.60;99.90;;;;;;5023330;28;20498;-37
2023/04/04 00:17:56;;;;;;;6.78;1.80;;;-0.60;99.90;;;;;;5026597;28;20049;-35
2023/04/04 00:20:23;;;;;;;4.05;3.72;;;-0.60;99.90;;;;;;5025447;28;20064;-36
2023/04/04 00:22:51;;;;;;;4.47;2.38;;;-0.60;99.90;;;;;;5026343;28;20425;-37
2023/04/04 00:25:18;;;;;;;3.92;3.03;;;-0.70;99.90;;;;;;5026513;28;20064;-36
2023/04/04 00:27:49;;;;;;;6.05;3.28;;;-0.70;99.90;;;;;;5025353;28;20057;-36
2023/04/04 00:30:17;;;;;;;2.15;1.95;;;-0.70;99.90;;;;;;5025983;28;20055;-36
2023/04/04 00:32:45;;;;;;;1.88;1.77;;;-0.70;99.90;;;;;;5026759;28;20054;-37
2023/04/04 00:35:12;;;;;;;3.20;1.92;;;-0.80;99.90;;;;;;5021488;28;20056;-36
2023/04/04 00:37:40;;;;;;;3.40;3.20;;;-0.80;99.90;;;;;;5026545;28;20406;-37
2023/04/04 00:40:08;;;;;;;3.67;2.30;;;-0.80;99.90;;;;;;5025619;28;20461;-37
2023/04/04 00:42:36;;;;;;;3.20;2.50;;;-0.90;99.90;;;;;;5025934;28;20052;-37
2023/04/04 00:45:07;;;;;;;3.60;3.30;;;-0.90;99.90;;;;;;5023331;28;20111;-37
2023/04/04 00:47:36;;;;;;;5.18;3.20;;;-1.00;99.90;;;;;;5025599;28;20073;-37
2023/04/04 00:50:05;;;;;;;5.35;3.25;;;-1.00;99.90;;;;;;5018688;28;20430;-38
2023/04/04 00:52:33;;;;;;;3.00;2.70;;;-1.10;99.90;;;;;;5013283;28;20057;-37
2023/04/04 00:55:01;;;;;;;2.53;2.33;;;-1.10;99.90;;;;;;5007871;28;20708;-37
2023/04/04 00:57:29;;;;;;;3.80;2.42;;;-1.20;99.90;;;;;;5026570;28;20057;-37
2023/04/04 01:00:00;;;;;;;3.15;2.95;;;-1.20;99.90;;;;;;5025002;28;20053;-39
2023/04/04 01:02:28;;;;;;;4.40;4.00;;;-1.30;99.90;;;;;;5007992;28;20051;-37
2023/04/04 01:04:56;;;;;;;4.15;3.28;;;-1.30;99.90;;;;;;5025056;28;20065;-39
2023/04/04 01:07:23;;;;;;;3.80;3.20;;;-1.40;99.90;;;;;;5025667;28;20436;-37
2023/04/04 01:09:51;;;;;;;6.60;4.20;;;-1.30;99.90;;;;;;5023679;28;20529;-38
2023/04/04 01:12:19;;;;;;;6.95;4.43;;;-1.40;99.90;;;;;;5025316;28;20053;-38
2023/04/04 01:14:47;;;;;;;4.13;3.60;;;-1.40;99.90;;;;;;5022862;28;20406;-38
2023/04/04 01:17:15;;;;;;;2.83;2.55;;;-1.50;99.90;;;;;;5024359;28;20057;-39
2023/04/04 01:19:48;;;;;;;4.20;3.85;;;-1.50;99.90;;;;;;5023124;28;20046;-39
2023/04/04 01:22:20;;;;;;;2.90;2.67;;;-1.60;99.90;;;;;;5006570;28;20498;-39
2023/04/04 01:24:48;;;;;;;3.72;2.47;;;-1.60;99.90;;;;;;5008530;28;20049;-39
2023/04/04 01:27:16;;;;;;;4.40;3.42;;;-1.60;99.90;;;;;;5022378;28;20509;-38
2023/04/04 01:29:53;;;;;;;4.20;3.30;;;-1.60;99.90;;;;;;5023497;28;20053;-40
2023/04/04 01:32:47;;;;;;;3.13;2.83;;;-1.60;99.90;;;;;;5013103;28;20402;-38
2023/04/04 01:35:34;;;;;;;3.20;2.95;;;-1.60;99.90;;;;;;5023733;28;20053;-38
2023/04/04 01:38:43;;;;;;;6.30;3.08;;;-1.60;99.90;;;;;;5024198;28;20060;-38
2023/04/04 01:41:11;;;;;;;2.90;1.92;;;-1.70;99.90;;;;;;5023674;28;20477;-38
2023/04/04 01:43:48;;;;;;;2.65;2.47;;;-1.70;99.90;;;;;;5007101;28;20134;-38
2023/04/04 01:46:17;;;;;;;3.20;3.00;;;-1.70;99.90;;;;;;5024783;28;20053;-38
2023/04/04 01:48:49;;;;;;;3.42;3.22;;;-1.70;99.90;;;;;;5010638;28;20517;-38
2023/04/04 01:51:22;;;;;;;3.20;3.00;;;-1.70;99.90;;;;;;5027973;28;20049;-38
2023/04/04 01:53:51;;;;;;;3.33;3.00;;;-1.70;99.90;;;;;;5013101;28;20064;-40
2023/04/04 01:56:18;;;;;;;5.43;3.22;;;-1.70;99.90;;;;;;5026744;28;20061;-38
2023/04/04 01:58:46;;;;;;;7.50;3.72;;;-1.70;99.90;;;;;;5026618;28;20064;-38
2023/04/04 02:01:14;;;;;;;3.83;2.25;;;-1.70;99.90;;;;;;5028219;28;20417;-38
2023/04/04 02:03:42;;;;;;;2.30;2.20;;;-1.80;99.90;;;;;;5008044;28;20421;-39
2023/04/04 02:06:10;;;;;;;2.55;2.35;;;-1.80;99.90;;;;;;5009515;28;20049;-38
2023/04/04 02:08:38;;;;;;;3.42;3.13;;;-1.80;99.90;;;;;;5014456;28;20053;-38
2023/04/04 02:11:06;;;;;;;1.75;1.65;;;-1.80;99.90;;;;;;5022282;28;20060;-39
2023/04/04 02:13:36;;;;;;;2.78;2.38;;;-1.80;99.90;;;;;;5027586;28;20053;-38
2023/04/04 02:16:04;;;;;;;5.07;2.58;;;-1.80;99.90;;;;;;4994697;28;20049;-39
2023/04/04 02:18:33;;;;;;;3.60;2.70;;;-1.80;99.90;;;;;;5026134;28;20406;-38
2023/04/04 02:21:01;;;;;;;4.07;3.05;;;-1.90;99.90;;;;;;5022875;28;20054;-42
2023/04/04 02:23:28;;;;;;;2.00;1.90;;;-1.90;99.90;;;;;;5026632;28;20045;-38
2023/04/04 02:25:56;;;;;;;2.35;2.15;;;-1.90;99.90;;;;;;5028607;28;20580;-39
2023/04/04 02:28:24;;;;;;;3.65;2.88;;;-1.90;99.90;;;;;;5023758;28;20054;-40
2023/04/04 02:30:52;;;;;;;4.15;2.75;;;-1.90;99.90;;;;;;5028551;28;20164;-39
2023/04/04 02:33:21;;;;;;;4.97;3.63;;;-1.90;99.90;;;;;;5031381;28;20061;-39
2023/04/04 02:35:50;;;;;;;7.32;2.38;;;-1.90;99.90;;;;;;5023532;28;20053;-38
2023/04/04 02:38:17;;;;;;;2.35;2.15;;;-1.90;99.90;;;;;;5028597;28;20072;-38
2023/04/04 02:40:46;;;;;;;5.32;3.03;;;-1.90;99.90;;;;;;5017232;28;20076;-38
2023/04/04 02:43:14;;;;;;;3.40;2.72;;;-2.00;99.90;;;;;;5007972;28;20045;-38
2023/04/04 02:45:42;;;;;;;3.55;3.00;;;-2.00;99.90;;;;;;5022170;28;20418;-38
2023/04/04 02:48:27;;;;;;;2.25;2.15;;;-2.00;99.90;;;;;;5023031;28;20064;-40
2023/04/04 02:50:59;;;;;;;2.95;2.75;;;-2.00;99.90;;;;;;5006435;28;20050;-38
2023/04/04 02:53:27;;;;;;;3.83;3.05;;;-2.10;99.90;;;;;;4995060;28;20069;-39
2023/04/04 02:56:04;;;;;;;7.78;4.30;;;-2.10;99.90;;;;;;5003673;28;20054;-39
2023/04/04 02:58:32;;;;;;;5.97;2.80;;;-2.10;99.90;;;;;;5001087;28;20054;-38
2023/04/04 03:00:59;;;;;;;4.00;2.67;;;-2.20;99.90;;;;;;5006895;28;20426;-38
2023/04/04 03:03:32;;;;;;;7.97;3.30;;;-2.20;99.90;;;;;;4988680;28;20049;-38
2023/04/04 03:06:00;;;;;;;3.90;3.42;;;-2.20;99.90;;;;;;5011048;28;20053;-39
2023/04/04 03:08:28;;;;;;;3.40;2.53;;;-2.20;99.90;;;;;;4990637;28;20050;-38
2023/04/04 03:10:58;;;;;;;3.90;2.53;;;-2.20;99.90;;;;;;4991051;28;20068;-40
2023/04/04 03:13:25;;;;;;;4.13;3.15;;;-2.30;99.90;;;;;;5008099;28;20347;-39
2023/04/04 03:16:05;;;;;;;9.95;2.95;;;-2.30;99.90;;;;;;5011699;28;20402;-39
2023/04/04 03:18:48;;;;;;;8.77;4.20;;;-2.30;99.90;;;;;;4999360;28;20493;-40
2023/04/04 03:21:19;;;;;;;3.33;3.03;;;-2.30;99.90;;;;;;5007052;28;20062;-38
2023/04/04 03:23:47;;;;;;;2.80;2.60;;;-2.30;99.90;;;;;;5006181;28;20522;-38
2023/04/04 03:26:14;;;;;;;2.00;1.90;;;-2.30;99.90;;;;;;4994896;28;20041;-38
2023/04/04 03:28:42;;;;;;;4.25;3.42;;;-2.30;99.90;;;;;;5007020;28;20058;-38
2023/04/04 03:31:11;;;;;;;3.63;3.15;;;-2.30;99.90;;;;;;5009966;28;20053;-38
2023/04/04 03:33:41;;;;;;;6.35;3.70;;;-2.30;99.90;;;;;;4992514;28;20525;-39
2023/04/04 03:36:11;;;;;;;3.08;2.78;;;-2.30;99.90;;;;;;5009908;28;20426;-42
2023/04/04 03:38:40;;;;;;;3.25;3.05;;;-2.30;99.90;;;;;;5008601;28;20050;-38
2023/04/04 03:41:09;;;;;;;2.70;2.55;;;-2.40;99.90;;;;;;5012913;28;20058;-38
2023/04/04 03:43:36;;;;;;;7.28;5.97;;;-2.40;99.90;;;;;;5006834;28;20053;-38
2023/04/04 03:46:06;;;;;;;5.28;2.72;;;-2.40;99.90;;;;;;5005683;28;20339;-38
2023/04/04 03:48:34;;;;;;;4.10;3.80;;;-2.40;99.90;;;;;;5011687;28;20054;-39
2023/04/04 03:51:04;;;;;;;3.10;2.80;;;-2.40;99.90;;;;;;5006867;28;20045;-40
2023/04/04 03:53:34;;;;;;;4.45;2.65;;;-2.40;99.90;;;;;;5027724;28;20788;-39
2023/04/04 03:56:02;;;;;;;7.22;3.92;;;-2.50;99.90;;;;;;5029833;28;20061;-38
2023/04/04 03:58:30;;;;;;;4.28;2.88;;;-2.50;99.90;;;;;;5030771;28;20057;-42
2023/04/04 04:00:58;;;;;;;2.05;1.95;;;-2.50;99.90;;;;;;5029371;28;20514;-39
2023/04/04 04:03:28;;;;;;;2.08;1.98;;;-2.50;99.90;;;;;;5028422;28;20514;-39
2023/04/04 04:05:57;;;;;;;2.67;2.47;;;-2.50;99.90;;;;;;5028728;28;20057;-40
2023/04/04 04:08:26;;;;;;;3.50;3.17;;;-2.50;99.90;;;;;;5030578;28;20050;-39
2023/04/04 04:10:54;;;;;;;4.18;2.88;;;-2.50;99.90;;;;;;5028876;28;20058;-38
2023/04/04 04:13:22;;;;;;;3.55;3.25;;;-2.60;99.90;;;;;;5030960;28;20054;-38
2023/04/04 04:15:50;;;;;;;4.13;3.83;;;-2.60;99.90;;;;;;5028202;28;20057;-43
2023/04/04 04:18:21;;;;;;;3.50;3.30;;;-2.60;99.90;;;;;;5025292;28;20057;-40
2023/04/04 04:20:58;;;;;;;3.67;3.38;;;-2.60;99.90;;;;;;5028684;28;20302;-40
2023/04/04 04:23:26;;;;;;;3.85;3.13;;;-2.60;99.90;;;;;;5026944;28;20068;-39
2023/04/04 04:25:54;;;;;;;4.05;3.05;;;-2.60;99.90;;;;;;5028283;28;20057;-38
2023/04/04 04:28:23;;;;;;;7.30;3.67;;;-2.60;99.90;;;;;;5020280;28;20077;-40
2023/04/04 04:31:06;;;;;;;8.18;3.10;;;-2.70;99.90;;;;;;5013911;28;20064;-39
2023/04/04 04:33:40;;;;;;;3.35;3.05;;;-2.70;99.90;;;;;;5021606;28;20378;-40
2023/04/04 04:36:08;;;;;;;5.80;3.38;;;-2.70;99.90;;;;;;5008957;28;20056;-38
2023/04/04 04:38:46;;;;;;;9.50;3.40;;;-2.70;99.90;;;;;;5024503;28;20046;-40
2023/04/04 04:41:15;;;;;;;9.20;3.67;;;-2.70;99.90;;;;;;5009264;28;20064;-39
2023/04/04 04:43:47;;;;;;;3.22;2.95;;;-2.70;99.90;;;;;;5025586;28;20061;-39
2023/04/04 04:46:14;;;;;;;4.30;3.78;;;-2.70;99.90;;;;;;5007433;28;20041;-39
2023/04/04 04:48:42;;;;;;;4.38;3.53;;;-2.70;99.90;;;;;;5021714;28;20053;-38
2023/04/04 04:51:13;;;;;;;3.10;2.83;;;-2.80;99.90;;;;;;5013888;28;20413;-39
2023/04/04 04:53:46;;;;;;;7.18;3.70;;;-2.80;99.90;;;;;;5017751;28;20054;-39
2023/04/04 04:56:14;;;;;;;5.43;3.08;;;-2.70;99.90;;;;;;5007793;28;20045;-40
2023/04/04 04:58:44;;;;;;;2.47;2.38;;;-2.70;99.90;;;;;;5022503;28;20048;-38
2023/04/04 05:01:19;;;;;;;10.48;4.53;;;-2.70;99.90;;;;;;5007572;28;20049;-38
2023/04/04 05:03:47;;;;;;;4.57;3.85;;;-2.70;99.90;;;;;;5023333;28;20049;-38
2023/04/04 05:06:22;;;;;;;8.18;3.20;;;-2.70;99.90;;;;;;5022913;28;20049;-39
2023/04/04 05:08:51;;;;;;;3.17;2.72;;;-2.70;99.90;;;;;;5023531;28;20061;-38
2023/04/04 05:11:32;;;;;;;4.40;3.27;;;-2.70;99.90;;;;;;5007649;28;20050;-38
2023/04/04 05:14:01;;;;;;;4.05;3.75;;;-2.70;99.90;;;;;;5007363;28;20129;-38
2023/04/04 05:16:33;;;;;;;3.85;3.55;;;-2.60;99.90;;;;;;5005729;28;20061;-39
2023/04/04 05:19:01;;;;;;;5.97;3.85;;;-2.60;99.90;;;;;;5011871;28;20503;-38
2023/04/04 05:21:35;;;;;;;3.50;3.20;;;-2.60;99.90;;;;;;5023271;28;20053;-40
2023/04/04 05:24:05;;;;;;;5.25;3.88;;;-2.60;99.90;;;;;;5018520;28;20053;-39
2023/04/04 05:26:35;;;;;;;4.88;4.07;;;-2.50;99.90;;;;;;5001478;28;20037;-40
2023/04/04 05:29:03;;;;;;;6.63;4.30;;;-2.50;99.90;;;;;;5023586;28;20388;-39
2023/04/04 05:31:32;;;;;;;5.63;5.20;;;-2.40;99.90;;;;;;5022858;28;20053;-38
2023/04/04 05:34:07;;;;;;;2.50;2.30;;;-2.40;99.90;;;;;;5005500;28;20049;-38
2023/04/04 05:36:36;;;;;;;7.53;4.38;;;-2.30;99.90;;;;;;5006553;28;20057;-38
2023/04/04 05:39:06;;;;;;;2.38;2.17;;;-2.30;99.90;;;;;;5024576;28;20076;-38
2023/04/04 05:41:39;;;;;;;2.65;2.45;;;-2.20;99.90;;;;;;5006095;28;20053;-37
2023/04/04 05:44:15;;;;;;;8.40;3.50;;;-2.20;99.90;;;;;;5024818;28;20045;-39
2023/04/04 05:46:42;;;;;;;3.22;3.05;;;-2.10;99.90;;;;;;5024946;28;20041;-37
2023/04/04 05:49:10;;;;;;;3.58;3.38;;;-2.00;99.90;;;;;;5024241;28;20786;-39
2023/04/04 05:51:42;;;;;;;6.50;4.75;;;-2.00;99.90;;;;;;5021299;28;20422;-39
2023/04/04 05:54:13;;;;;;;3.65;3.08;;;-1.90;99.90;;;;;;5015237;28;20050;-39
2023/04/04 05:56:42;;;;;;;6.40;2.45;;;-1.90;99.90;;;;;;5006112;28;20513;-39
2023/04/04 05:59:25;;;;;;;2.13;2.03;;;-1.80;99.90;;;;;;5017333;28;20042;-38
2023/04/04 06:02:00;;;;;;;3.78;3.47;;;-1.70;99.90;;;;;;5021891;28;20466;-39
2023/04/04 06:04:29;;;;;;;3.50;2.72;;;-1.50;99.90;;;;;;5005072;28;20065;-39
2023/04/04 06:06:59;;;;;;;5.40;4.18;;;-1.30;99.90;;;;;;5023654;28;20061;-38
2023/04/04 06:09:27;;;;;;;3.13;2.72;;;-1.00;99.90;;;;;;5017934;28;20060;-39
2023/04/04 06:11:55;;;;;;;3.97;3.53;;;-0.70;99.90;;;;;;4999016;28;20054;-39
2023/04/04 06:14:23;;;;;;;4.78;4.38;;;-0.40;99.90;;;;;;5014132;28;20735;-40
2023/04/04 06:16:51;;;;;;;5.03;4.53;;;0.20;99.90;;;;;;5025081;28;20053;-38
2023/04/04 06:19:19;;;;;;;3.40;3.20;;;0.80;99.90;;;;;;5021884;28;20061;-38
2023/04/04 06:21:48;;;;;;;3.50;3.25;;;1.20;99.90;;;;;;5021773;28;20049;-38
2023/04/04 06:24:15;;;;;;;6.70;2.95;;;1.30;99.90;;;;;;5005640;28;20046;-38
2023/04/04 06:26:44;;;;;;;4.18;3.80;;;1.70;99.90;;;;;;5022061;28;20049;-38
2023/04/04 06:29:12;;;;;;;8.93;3.47;;;2.20;99.90;;;;;;5006489;28;20053;-38
2023/04/04 06:31:41;;;;;;;4.85;4.32;;;2.20;99.90;;;;;;5023469;28;20037;-38
2023/04/04 06:34:13;;;;;;;5.03;3.42;;;2.50;99.90;;;;;;5004611;28;20695;-37
2023/04/04 06:36:53;;;;;;;7.30;4.00;;;2.90;99.90;;;;;;5020806;28;20730;-37
2023/04/04 06:39:24;;;;;;;6.43;3.93;;;3.20;99.90;;;;;;5023848;28;20098;-37
2023/04/04 06:41:54;;;;;;;8.85;3.58;;;3.40;99.90;;;;;;5008235;28;20425;-37
2023/04/04 06:44:26;;;;;;;3.55;3.25;;;3.60;99.90;;;;;;5026614;28;20056;-37
2023/04/04 06:46:53;;;;;;;9.48;3.20;;;4.10;99.60;;;;;;5020842;28;20064;-37
2023/04/04 06:49:21;;;;;;;3.67;3.38;;;4.10;99.90;;;;;;5023191;28;20064;-37
2023/04/04 06:51:50;;;;;;;2.75;2.28;;;4.90;98.80;;;;;;5018193;28;20041;-38
2023/04/04 06:54:17;;;;;;;7.93;3.40;;;5.40;95.60;;;;;;5024871;28;20046;-37
2023/04/04 06:56:45;;;;;;;3.60;3.28;;;4.80;95.10;;;;;;5025088;28;20049;-38
2023/04/04 06:59:12;;;;;;;4.25;3.70;;;4.80;97.10;;;;;;5020734;28;20049;-37
2023/04/04 07:01:40;;;;;;;4.00;3.70;;;5.40;94.80;;;;;;5020955;28;20049;-38
2023/04/04 07:04:07;;;;;;;6.32;3.25;;;5.80;93.70;;;;;;5021857;28;20049;-37
2023/04/04 07:06:36;;;;;;;4.15;3.17;;;6.10;92.30;;;;;;5019336;28;20053;-37
2023/04/04 07:09:03;;;;;;;4.60;4.20;;;5.60;91.70;;;;;;5021650;28;20037;-38
2023/04/04 07:11:35;;;;;;;5.90;4.43;;;5.70;92.40;;;;;;5020005;28;20540;-37
2023/04/04 07:14:02;;;;;;;4.38;3.80;;;6.10;91.00;;;;;;5020762;28;20056;-38
2023/04/04 07:16:30;;;;;;;4.40;3.25;;;7.00;89.80;;;;;;5022021;28;20045;-37
2023/04/04 07:18:58;;;;;;;4.85;3.85;;;7.20;84.50;;;;;;5020552;28;20052;-37
2023/04/04 07:21:25;;;;;;;9.35;4.82;;;6.40;84.80;;;;;;5020617;28;20406;-37
2023/04/04 07:23:53;;;;;;;5.35;4.05;;;6.20;85.60;;;;;;5021328;28;20041;-37
2023/04/04 07:26:21;;;;;;;6.05;3.80;;;6.20;87.00;;;;;;5019834;28;20532;-37
2023/04/04 07:28:48;;;;;;;4.00;3.47;;;6.80;83.50;;;;;;5020841;28;20057;-37
2023/04/04 07:31:16;;;;;;;4.05;3.75;;;7.50;80.90;;;;;;5015528;28;20041;-36
2023/04/04 07:33:43;;;;;;;3.75;3.42;;;7.60;77.70;;;;;;5019841;28;20054;-37
2023/04/04 07:36:14;;;;;;;7.32;3.90;;;8.40;76.90;;;;;;5020549;28;20421;-38
2023/04/04 07:38:42;;;;;;;3.67;3.25;;;8.80;73.40;;;;;;5024985;28;20457;-36
2023/04/04 07:41:10;;;;;;;3.75;3.10;;;8.80;69.70;;;;;;5024947;28;20053;-36
2023/04/04 07:43:38;;;;;;;4.10;3.22;;;8.40;71.90;;;;;;5025198;28;20057;-36
2023/04/04 07:46:05;;;;;;;8.93;4.38;;;8.10;70.80;;;;;;5025348;28;20053;-36
2023/04/04 07:48:33;;;;;;;5.82;2.50;;;6.70;74.80;;;;;;5024054;28;20046;-37
2023/04/04 07:51:04;;;;;;;6.47;4.18;;;5.80;81.80;;;;;;5023614;28;20045;-37
2023/04/04 07:53:31;;;;;;;9.63;4.27;;;7.20;79.40;;;;;;5025121;28;20053;-37
2023/04/04 07:56:05;;;;;;;3.80;3.50;;;7.80;72.90;;;;;;5023910;28;20295;-36
2023/04/04 07:58:33;;;;;;;2.88;2.67;;;8.40;66.40;;;;;;5024389;28;20065;-36
2023/04/04 08:01:02;;;;;;;3.03;2.83;;;7.60;69.10;;;;;;5023842;28;20057;-48
2023/04/04 08:03:30;;;;;;;4.05;3.10;;;8.40;67.70;;;;;;5024652;28;20529;-46
2023/04/04 08:05:57;;;;;;;4.68;4.28;;;8.00;68.00;;;;;;5023192;28;20068;-45
2023/04/04 08:08:26;;;;;;;4.32;3.67;;;7.40;69.40;;;;;;5006807;28;20053;-45
2023/04/04 08:10:53;;;;;;;5.15;4.65;;;6.10;73.70;;;;;;5024409;28;20042;-48
2023/04/04 08:13:21;;;;;;;3.80;3.60;;;6.30;73.00;;;;;;5024949;28;20053;-45
2023/04/04 08:15:48;;;;;;;5.97;3.88;;;4.60;82.30;;;;;;5027162;28;20054;-45
2023/04/04 08:18:16;;;;;;;2.35;2.25;;;3.10;92.40;;;;;;5024480;28;20049;-46
2023/04/04 08:20:44;;;;;;;4.05;3.72;;;2.60;95.70;;;;;;5022583;28;20474;-46
2023/04/04 08:23:12;;;;;;;3.67;3.35;;;4.20;91.10;;;;;;5020533;28;20418;-45
2023/04/04 08:25:40;;;;;;;5.40;5.00;;;4.50;90.90;;;;;;5026005;28;20041;-45
2023/04/04 08:28:07;;;;;;;6.10;3.05;;;4.50;85.60;;;;;;5025388;28;20060;-46
2023/04/04 08:30:36;;;;;;;3.38;3.08;;;5.20;88.30;;;;;;5024143;28;20103;-46
2023/04/04 08:33:04;;;;;;;9.75;4.75;;;7.10;77.90;;;;;;5025114;28;20065;-46
2023/04/04 08:35:32;;;;;;;3.83;3.42;;;7.80;73.60;;;;;;5023122;28;20049;-46
2023/04/04 08:38:04;;;;;;;4.18;3.88;;;7.90;73.00;;;;;;5031306;28;20061;-45
2023/04/04 08:40:32;;;;;;;4.45;4.05;;;5.70;75.30;;;;;;5028736;28;20441;-46
2023/04/04 08:43:04;;;;;;;5.60;4.65;;;3.50;88.70;;;;;;5025836;28;20469;-47
2023/04/04 08:45:33;;;;;;;3.70;3.50;;;2.50;95.00;;;;;;5028430;28;20072;-46
2023/04/04 08:48:03;;;;;;;3.53;3.22;;;2.20;94.90;;;;;;5025392;28;20481;-46
2023/04/04 08:50:32;;;;;;;6.38;3.47;;;1.90;95.50;;;;;;5024232;28;20061;-46
2023/04/04 08:53:03;;;;;;;6.05;3.88;;;1.90;98.10;;;;;;5026191;28;20052;-45
2023/04/04 08:55:31;;;;;;;3.80;3.58;;;2.10;96.60;;;;;;5027286;28;20041;-45
2023/04/04 08:57:59;;;;;;;4.82;3.70;;;2.00;95.40;;;;;;5027988;28;20041;-46
2023/04/04 09:00:26;;;;;;;3.05;2.70;;;2.00;96.60;;;;;;5022898;28;20441;-46
2023/04/04 09:03:25;;;;;;;2.58;2.47;;;2.00;97.00;;;;;;5027583;28;20521;-45
2023/04/04 09:05:54;;;;;;;3.05;2.83;;;1.90;97.20;;;;;;5022061;28;20041;-45
2023/04/04 09:08:25;;;;;;;3.72;3.42;;;1.90;95.40;;;;;;5027257;28;20057;-45
2023/04/04 09:10:53;;;;;;;3.00;2.72;;;1.80;95.50;;;;;;5027807;28;20485;-45
2023/04/04 09:13:21;;;;;;;4.00;3.25;;;1.90;96.20;;;;;;5031119;28;20050;-45
2023/04/04 09:15:52;;;;;;;4.97;4.18;;;2.10;94.20;;;;;;5031413;28;20402;-45
2023/04/04 09:18:20;;;;;;;4.93;4.53;;;2.50;95.90;;;;;;5031444;28;20049;-45
2023/04/04 09:20:49;;;;;;;5.57;4.03;;;2.60;94.10;;;;;;5026112;28;20064;-45
2023/04/04 09:23:19;;;;;;;4.72;3.85;;;2.40;92.20;;;;;;5030306;28;20309;-45
2023/04/04 09:25:49;;;;;;;3.28;3.00;;;2.30;92.90;;;;;;5030813;28;20438;-46
2023/04/04 09:28:21;;;;;;;3.60;3.35;;;2.00;94.80;;;;;;5031338;28;20064;-45
2023/04/04 09:30:50;;;;;;;4.22;3.75;;;2.10;94.40;;;;;;5030190;28;20041;-45
2023/04/04 09:33:25;;;;;;;4.38;3.60;;;2.20;92.90;;;;;;5030743;28;20053;-45
2023/04/04 09:36:08;;;;;;;5.55;5.05;;;2.30;92.30;;;;;;5028555;28;20045;-44
2023/04/04 09:38:39;;;;;;;6.05;4.15;;;2.40;93.50;;;;;;5030377;28;20444;-45
2023/04/04 09:41:08;;;;;;;6.28;4.05;;;2.40;93.20;;;;;;5026331;28;20064;-45
2023/04/04 09:43:38;;;;;;;4.38;3.38;;;2.30;95.20;;;;;;5030450;28;20057;-45
2023/04/04 09:46:06;;;;;;;3.95;3.58;;;2.30;94.30;;;;;;5030465;28;20050;-44
2023/04/04 09:48:36;;;;;;;4.65;4.20;;;2.20;96.00;;;;;;5029247;28;20053;-45
2023/04/04 09:51:05;;;;;;;6.18;4.55;;;2.30;95.30;;;;;;5030960;28;20056;-45
2023/04/04 09:53:35;;;;;;;5.03;4.55;;;2.40;99.90;;;;;;5029065;28;20065;-45
2023/04/04 09:56:05;;;;;;;5.03;4.57;;;2.80;95.60;;;;;;5026532;28;20054;-45
2023/04/04 09:58:35;;;;;;;3.70;3.13;;;3.00;96.60;;;;;;5026557;28;20056;-46
2023/04/04 10:01:11;;;;;;;4.15;3.85;;;3.00;91.10;;;;;;5027665;28;20060;-45
2023/04/04 10:03:39;;;;;;;4.13;3.83;;;2.80;91.00;;;;;;5023341;28;20049;-45
2023/04/04 10:06:08;;;;;;;3.95;3.65;;;2.80;91.30;;;;;;5029004;28;20060;-46
2023/04/04 10:08:39;;;;;;;3.47;3.20;;;2.60;91.50;;;;;;5027237;28;20056;-46
2023/04/04 10:11:08;;;;;;;5.13;4.70;;;2.70;94.00;;;;;;5026024;28;20513;-46
2023/04/04 10:13:40;;;;;;;7.03;3.85;;;2.90;93.60;;;;;;5026646;28;20262;-46
2023/04/04 10:16:09;;;;;;;4.47;4.10;;;3.00;91.80;;;;;;5027715;28;20076;-45
2023/04/04 10:18:38;;;;;;;9.18;4.40;;;3.00;92.80;;;;;;5026256;28;20060;-46
2023/04/04 10:21:10;;;;;;;3.90;3.53;;;3.00;93.00;;;;;;5024512;28;20061;-45
2023/04/04 10:23:45;;;;;;;6.68;4.18;;;2.90;93.50;;;;;;5025656;28;20049;-45
2023/04/04 10:26:14;;;;;;;7.55;4.50;;;3.30;93.00;;;;;;5026940;28;20045;-44
2023/04/04 10:28:42;;;;;;;5.25;4.80;;;3.60;94.20;;;;;;5029058;28;20045;-45
2023/04/04 10:31:17;;;;;;;5.35;2.78;;;3.60;93.30;;;;;;5025548;28;20069;-45
2023/04/04 10:34:14;;;;;;;4.03;3.72;;;3.40;92.90;;;;;;5024438;28;20052;-46
2023/04/04 10:36:47;;;;;;;10.18;5.40;;;3.50;90.50;;;;;;5030872;28;20375;-46
2023/04/04 10:39:29;;;;;;;5.95;4.03;;;3.30;92.60;;;;;;5026478;28;20053;-45
2023/04/04 10:41:58;;;;;;;4.28;3.88;;;3.20;92.00;;;;;;5026031;28;20049;-46
2023/04/04 10:44:32;;;;;;;5.50;3.70;;;3.50;93.80;;;;;;5026013;28;20053;-46
2023/04/04 10:47:14;;;;;;;5.38;4.07;;;3.80;92.50;;;;;;5026764;28;20049;-45
2023/04/04 10:49:45;;;;;;;3.22;2.88;;;4.00;94.50;;;;;;5023826;28;20049;-47
2023/04/04 10:52:19;;;;;;;6.03;4.85;;;4.00;87.80;;;;;;5025935;28;20049;-46
2023/04/04 10:54:51;;;;;;;4.50;4.00;;;3.80;93.80;;;;;;5020460;28;20054;-47
2023/04/04 10:57:20;;;;;;;4.15;3.70;;;3.60;90.40;;;;;;5026871;28;20053;-47
2023/04/04 10:59:57;;;;;;;4.47;4.20;;;3.20;96.60;;;;;;5027951;28;20064;-47
2023/04/04 11:02:52;;;;;;;4.07;3.78;;;3.40;94.10;;;;;;5025115;28;20052;-47
2023/04/04 11:05:36;;;;;;;5.47;5.03;;;3.50;94.20;;;;;;5023711;28;20056;-47
2023/04/04 11:08:06;;;;;;;4.88;4.10;;;3.20;95.60;;;;;;5025433;28;20046;-47
2023/04/04 11:10:38;;;;;;;4.07;3.75;;;3.30;97.90;;;;;;5021473;28;20053;-47
2023/04/04 11:13:12;;;;;;;2.90;2.67;;;3.50;97.30;;;;;;5017221;28;20056;-47
2023/04/04 11:15:56;;;;;;;4.60;4.13;;;3.50;90.60;;;;;;5021362;28;20526;-47
2023/04/04 11:18:44;;;;;;;4.18;3.88;;;3.20;91.40;;;;;;5021073;28;20530;-46
2023/04/04 11:21:17;;;;;;;3.47;3.17;;;3.30;90.70;;;;;;5019955;28;20067;-47
2023/04/04 11:23:47;;;;;;;4.97;4.57;;;3.70;90.40;;;;;;5021319;28;20513;-46
2023/04/04 11:26:38;;;;;;;3.90;3.45;;;3.60;90.80;;;;;;5016523;28;20087;-46
2023/04/04 11:29:13;;;;;;;4.28;3.33;;;3.20;90.70;;;;;;5015608;28;20057;-46
2023/04/04 11:31:44;;;;;;;3.45;3.10;;;3.20;94.10;;;;;;5020241;28;20053;-46
2023/04/04 11:34:13;;;;;;;;;;;3.00;92.50;;;;;;5020654;28;20076;-46
2023/04/04 11:36:41;;;;;;;3.97;3.60;;;2.70;92.40;;;;;;5020936;28;20234;-47
2023/04/04 11:39:15;;;;;;;4.40;4.07;;;2.70;95.20;;;;;;5021110;28;20537;-47
2023/04/04 11:41:46;;;;;;;4.80;4.15;;;2.60;93.50;;;;;;5018836;28;20387;-47
2023/04/04 11:44:16;;;;;;;4.95;3.75;;;2.60;98.10;;;;;;5017640;28;20498;-47
2023/04/04 11:46:47;;;;;;;3.30;3.00;;;2.80;98.10;;;;;;5019179;28;20052;-46
2023/04/04 11:49:18;;;;;;;6.95;4.32;;;3.10;97.50;;;;;;5020325;28;20545;-47
2023/04/04 11:51:46;;;;;;;8.38;4.90;;;3.40;94.80;;;;;;5020064;28;20057;-46
2023/04/04 11:54:14;;;;;;;3.67;2.88;;;3.80;92.50;;;;;;5019688;28;20522;-47
2023/04/04 11:56:44;;;;;;;4.03;3.72;;;4.10;90.20;;;;;;5021332;28;20069;-47
2023/04/04 11:59:12;;;;;;;3.35;3.15;;;4.10;92.60;;;;;;5020204;28;20042;-46
2023/04/04 12:01:40;;;;;;;4.70;4.30;;;4.50;93.30;;;;;;5020799;28;20105;-47
2023/04/04 12:04:09;;;;;;;4.15;3.85;;;4.70;89.60;;;;;;5020098;28;20429;-46
2023/04/04 12:06:37;;;;;;;6.03;4.68;;;4.60;93.10;;;;;;5019842;28;20061;-47
2023/04/04 12:09:06;;;;;;;4.75;4.45;;;4.50;94.50;;;;;;5021343;28;20056;-46
2023/04/04 12:11:35;;;;;;;6.70;5.03;;;4.70;92.80;;;;;;5021856;28;20553;-47
2023/04/04 12:14:03;;;;;;;4.22;3.83;;;4.30;92.90;;;;;;5024691;28;20053;-47
2023/04/04 12:16:31;;;;;;;5.85;3.60;;;4.20;92.60;;;;;;5025846;28;20501;-47
2023/04/04 12:19:01;;;;;;;4.47;4.20;;;4.20;89.30;;;;;;5022794;28;20794;-47
2023/04/04 12:21:32;;;;;;;5.32;4.82;;;3.90;91.20;;;;;;5025166;28;20065;-46
2023/04/04 12:23:59;;;;;;;4.63;4.07;;;3.90;90.70;;;;;;5021633;28;20064;-46
2023/04/04 12:26:28;;;;;;;4.93;4.53;;;4.20;95.80;;;;;;5024463;28;20540;-46
2023/04/04 12:28:57;;;;;;;8.20;4.10;;;4.40;91.50;;;;;;5022610;28;20392;-46
2023/04/04 12:31:26;;;;;;;4.97;4.50;;;4.10;92.00;;;;;;5023428;28;20060;-47
2023/04/04 12:33:53;;;;;;;4.45;4.10;;;3.80;96.00;;;;;;5021211;28;20053;-48
2023/04/04 12:36:24;;;;;;;5.07;4.45;;;4.00;92.90;;;;;;5023578;28;20053;-47
2023/04/04 12:39:07;;;;;;;4.55;4.25;;;3.90;95.50;;;;;;5023596;28;20057;-46
2023/04/04 12:41:46;;;;;;;4.47;4.18;;;4.10;91.10;;;;;;5023437;28;20410;-47
2023/04/04 12:44:35;;;;;;;4.53;4.13;;;4.00;89.40;;;;;;4975021;28;20282;-47
2023/04/04 12:47:05;;;;;;;4.55;4.15;;;4.00;93.80;;;;;;5021371;28;20072;-47
2023/04/04 12:49:43;;;;;;;4.35;3.88;;;4.20;85.50;;;;;;5023021;28;20060;-46
2023/04/04 12:52:22;;;;;;;4.93;4.57;;;4.00;87.50;;;;;;5022583;28;20045;-47
2023/04/04 12:54:52;;;;;;;6.57;5.43;;;4.40;96.00;;;;;;5019893;28;20506;-47
2023/04/04 12:57:35;;;;;;;3.58;3.28;;;4.60;94.80;;;;;;5022778;28;20057;-47
2023/04/04 13:00:06;;;;;;;5.68;4.20;;;5.20;90.60;;;;;;5023993;28;20049;-46
2023/04/04 13:02:35;;;;;;;8.95;5.32;;;5.40;85.20;;;;;;5023177;28;20050;-46
2023/04/04 13:05:05;;;;;;;3.50;3.30;;;5.60;97.10;;;;;;5022735;28;20042;-46
2023/04/04 13:07:45;;;;;;;3.40;3.20;;;5.60;86.80;;;;;;5017987;28;20038;-46
2023/04/04 13:10:15;;;;;;;4.30;3.85;;;5.40;82.70;;;;;;5021300;28;20088;-47